sensor_id;sensor_type;location;lat;lon;timestamp;P1;durP1;ratioP1;P2;durP2;ratioP2
9117;SDS011;4594;50.994;7.126;2022-09-28T00:03:32;2.53;;;2.43;;
9117;SDS011;4594;50.994;7.126;2022-09-28T00:06:02;3.17;;;3.07;;
9117;SDS011;4594;50.994;7.126;2022-09-28T00:08:31;4.03;;;3.00;;
9117;SDS011;4594;50.994;7.126;2022-09-28T00:10:59;3.13;;;3.00;;
9117;SDS011;4594;50.994;7.126;2022-09-28T00:13:26;3.27;;;2.97;;
9117;SDS011;4594;50.994;7.126;2022-09-28T00:18:47;3.33;;;3.10;;
9117;SDS011;4594;50.994;7.126;2022-09-28T00:21:16;3.73;;;3.43;;
9117;SDS011;4594;50.994;7.126;2022-09-28T00:23:50;4.00;;;3.70;;
9117;SDS011;4594;50.994;7.126;2022-09-28T00:29:20;3.57;;;3.33;;
9117;SDS011;4594;50.994;7.126;2022-09-28T00:32:00;5.00;;;3.30;;
9117;SDS011;4594;50.994;7.126;2022-09-28T00:34:30;4.10;;;3.80;;
9117;SDS011;4594;50.994;7.126;2022-09-28T00:37:09;4.47;;;4.17;;
9117;SDS011;4594;50.994;7.126;2022-09-28T00:39:37;3.97;;;3.67;;
9117;SDS011;4594;50.994;7.126;2022-09-28T00:42:09;4.00;;;3.70;;
9117;SDS011;4594;50.994;7.126;2022-09-28T00:44:50;4.63;;;3.67;;
9117;SDS011;4594;50.994;7.126;2022-09-28T00:47:25;2.80;;;2.60;;
9117;SDS011;4594;50.994;7.126;2022-09-28T00:55:39;2.40;;;2.20;;
9117;SDS011;4594;50.994;7.126;2022-09-28T00:58:25;2.33;;;2.13;;
9117;SDS011;4594;50.994;7.126;2022-09-28T01:00:56;2.70;;;1.87;;
9117;SDS011;4594;50.994;7.126;2022-09-28T01:03:24;1.63;;;1.63;;
9117;SDS011;4594;50.994;7.126;2022-09-28T01:05:52;1.70;;;1.70;;
9117;SDS011;4594;50.994;7.126;2022-09-28T01:08:21;1.60;;;1.50;;
9117;SDS011;4594;50.994;7.126;2022-09-28T01:10:54;2.23;;;1.70;;
9117;SDS011;4594;50.994;7.126;2022-09-28T01:13:21;1.70;;;1.70;;
9117;SDS011;4594;50.994;7.126;2022-09-28T01:15:59;3.17;;;1.70;;
9117;SDS011;4594;50.994;7.126;2022-09-28T01:21:46;1.60;;;1.50;;
9117;SDS011;4594;50.994;7.126;2022-09-28T01:24:48;1.60;;;1.60;;
9117;SDS011;4594;50.994;7.126;2022-09-28T01:27:31;1.67;;;1.67;;
9117;SDS011;4594;50.994;7.126;2022-09-28T01:30:09;1.80;;;1.70;;
9117;SDS011;4594;50.994;7.126;2022-09-28T01:32:57;1.70;;;1.70;;
9117;SDS011;4594;50.994;7.126;2022-09-28T01:35:33;2.00;;;1.90;;
9117;SDS011;4594;50.994;7.126;2022-09-28T01:38:33;1.93;;;1.90;;
9117;SDS011;4594;50.994;7.126;2022-09-28T01:41:18;1.53;;;1.53;;
9117;SDS011;4594;50.994;7.126;2022-09-28T01:43:50;4.43;;;1.80;;
9117;SDS011;4594;50.994;7.126;2022-09-28T01:46:22;2.10;;;2.00;;
9117;SDS011;4594;50.994;7.126;2022-09-28T01:48:56;1.87;;;1.80;;
9117;SDS011;4594;50.994;7.126;2022-09-28T01:53:59;2.00;;;2.00;;
9117;SDS011;4594;50.994;7.126;2022-09-28T01:56:35;2.00;;;1.87;;
9117;SDS011;4594;50.994;7.126;2022-09-28T01:59:14;2.27;;;2.03;;
9117;SDS011;4594;50.994;7.126;2022-09-28T02:01:59;1.80;;;1.80;;
9117;SDS011;4594;50.994;7.126;2022-09-28T02:04:43;2.30;;;2.10;;
9117;SDS011;4594;50.994;7.126;2022-09-28T02:07:21;2.53;;;2.03;;
9117;SDS011;4594;50.994;7.126;2022-09-28T02:09:58;2.07;;;1.97;;
9117;SDS011;4594;50.994;7.126;2022-09-28T02:12:34;1.70;;;1.70;;
9117;SDS011;4594;50.994;7.126;2022-09-28T02:15:11;1.97;;;1.90;;
9117;SDS011;4594;50.994;7.126;2022-09-28T02:17:46;2.00;;;1.90;;
9117;SDS011;4594;50.994;7.126;2022-09-28T02:20:14;1.80;;;1.80;;
9117;SDS011;4594;50.994;7.126;2022-09-28T02:22:45;2.37;;;1.87;;
9117;SDS011;4594;50.994;7.126;2022-09-28T02:28:10;2.40;;;2.30;;
9117;SDS011;4594;50.994;7.126;2022-09-28T02:30:38;2.40;;;2.20;;
9117;SDS011;4594;50.994;7.126;2022-09-28T02:33:17;1.90;;;1.90;;
9117;SDS011;4594;50.994;7.126;2022-09-28T02:36:07;1.80;;;1.70;;
9117;SDS011;4594;50.994;7.126;2022-09-28T02:38:33;2.50;;;2.30;;
9117;SDS011;4594;50.994;7.126;2022-09-28T02:41:02;3.13;;;2.13;;
9117;SDS011;4594;50.994;7.126;2022-09-28T02:43:51;2.27;;;2.17;;
9117;SDS011;4594;50.994;7.126;2022-09-28T02:46:41;2.50;;;2.30;;
9117;SDS011;4594;50.994;7.126;2022-09-28T02:49:42;2.60;;;2.40;;
9117;SDS011;4594;50.994;7.126;2022-09-28T03:01:13;2.73;;;2.53;;
9117;SDS011;4594;50.994;7.126;2022-09-28T03:04:17;2.77;;;2.57;;
9117;SDS011;4594;50.994;7.126;2022-09-28T03:09:40;3.10;;;3.00;;
9117;SDS011;4594;50.994;7.126;2022-09-28T03:12:12;3.47;;;3.20;;
9117;SDS011;4594;50.994;7.126;2022-09-28T03:14:44;3.37;;;3.17;;
9117;SDS011;4594;50.994;7.126;2022-09-28T03:17:10;3.93;;;3.63;;
9117;SDS011;4594;50.994;7.126;2022-09-28T03:19:35;3.57;;;3.27;;
9117;SDS011;4594;50.994;7.126;2022-09-28T03:22:01;4.27;;;3.47;;
9117;SDS011;4594;50.994;7.126;2022-09-28T03:24:27;3.23;;;3.13;;
9117;SDS011;4594;50.994;7.126;2022-09-28T03:26:53;6.03;;;3.70;;
9117;SDS011;4594;50.994;7.126;2022-09-28T03:29:19;3.40;;;3.20;;
9117;SDS011;4594;50.994;7.126;2022-09-28T03:31:44;5.23;;;3.67;;
9117;SDS011;4594;50.994;7.126;2022-09-28T03:34:11;5.23;;;4.03;;
9117;SDS011;4594;50.994;7.126;2022-09-28T03:36:37;4.33;;;4.00;;
9117;SDS011;4594;50.994;7.126;2022-09-28T03:39:03;4.87;;;4.43;;
9117;SDS011;4594;50.994;7.126;2022-09-28T03:41:28;4.23;;;3.83;;
9117;SDS011;4594;50.994;7.126;2022-09-28T03:43:54;3.87;;;3.57;;
9117;SDS011;4594;50.994;7.126;2022-09-28T03:46:20;3.70;;;3.40;;
9117;SDS011;4594;50.994;7.126;2022-09-28T03:48:45;3.53;;;3.33;;
9117;SDS011;4594;50.994;7.126;2022-09-28T03:51:11;4.10;;;3.27;;
9117;SDS011;4594;50.994;7.126;2022-09-28T03:53:37;4.03;;;3.67;;
9117;SDS011;4594;50.994;7.126;2022-09-28T03:56:05;5.10;;;4.00;;
9117;SDS011;4594;50.994;7.126;2022-09-28T03:58:37;4.53;;;3.90;;
9117;SDS011;4594;50.994;7.126;2022-09-28T04:01:05;4.30;;;3.80;;
9117;SDS011;4594;50.994;7.126;2022-09-28T04:03:33;4.47;;;4.07;;
9117;SDS011;4594;50.994;7.126;2022-09-28T04:05:59;4.37;;;4.00;;
9117;SDS011;4594;50.994;7.126;2022-09-28T04:08:25;6.70;;;4.50;;
9117;SDS011;4594;50.994;7.126;2022-09-28T04:10:51;6.13;;;4.57;;
9117;SDS011;4594;50.994;7.126;2022-09-28T04:13:21;4.77;;;4.43;;
9117;SDS011;4594;50.994;7.126;2022-09-28T04:15:55;5.20;;;4.80;;
9117;SDS011;4594;50.994;7.126;2022-09-28T04:18:23;5.90;;;5.10;;
9117;SDS011;4594;50.994;7.126;2022-09-28T04:20:59;5.77;;;5.30;;
9117;SDS011;4594;50.994;7.126;2022-09-28T04:23:33;5.90;;;5.43;;
9117;SDS011;4594;50.994;7.126;2022-09-28T04:26:01;6.90;;;5.70;;
9117;SDS011;4594;50.994;7.126;2022-09-28T04:28:28;6.13;;;5.57;;
9117;SDS011;4594;50.994;7.126;2022-09-28T04:31:16;7.47;;;5.70;;
9117;SDS011;4594;50.994;7.126;2022-09-28T04:33:47;9.17;;;6.53;;
9117;SDS011;4594;50.994;7.126;2022-09-28T04:36:13;7.37;;;6.03;;
9117;SDS011;4594;50.994;7.126;2022-09-28T04:38:39;6.30;;;5.77;;
9117;SDS011;4594;50.994;7.126;2022-09-28T04:41:05;6.93;;;6.23;;
9117;SDS011;4594;50.994;7.126;2022-09-28T04:43:31;6.93;;;6.23;;
9117;SDS011;4594;50.994;7.126;2022-09-28T04:45:58;8.30;;;6.40;;
9117;SDS011;4594;50.994;7.126;2022-09-28T04:48:30;7.80;;;6.40;;
9117;SDS011;4594;50.994;7.126;2022-09-28T04:50:57;7.03;;;5.93;;
9117;SDS011;4594;50.994;7.126;2022-09-28T04:53:24;8.47;;;5.80;;
9117;SDS011;4594;50.994;7.126;2022-09-28T04:55:55;6.47;;;5.43;;
9117;SDS011;4594;50.994;7.126;2022-09-28T04:58:38;5.17;;;4.77;;
9117;SDS011;4594;50.994;7.126;2022-09-28T05:01:06;4.93;;;4.53;;
9117;SDS011;4594;50.994;7.126;2022-09-28T05:03:36;5.57;;;5.13;;
9117;SDS011;4594;50.994;7.126;2022-09-28T05:06:02;6.30;;;5.60;;
9117;SDS011;4594;50.994;7.126;2022-09-28T05:08:28;6.23;;;5.30;;
9117;SDS011;4594;50.994;7.126;2022-09-28T05:10:58;10.90;;;6.80;;
9117;SDS011;4594;50.994;7.126;2022-09-28T05:13:29;6.77;;;6.20;;
9117;SDS011;4594;50.994;7.126;2022-09-28T05:15:56;8.17;;;7.37;;
9117;SDS011;4594;50.994;7.126;2022-09-28T05:18:23;8.67;;;6.53;;
9117;SDS011;4594;50.994;7.126;2022-09-28T05:20:49;10.23;;;7.33;;
9117;SDS011;4594;50.994;7.126;2022-09-28T05:23:15;12.80;;;8.23;;
9117;SDS011;4594;50.994;7.126;2022-09-28T05:25:41;7.87;;;7.07;;
9117;SDS011;4594;50.994;7.126;2022-09-28T05:28:09;8.23;;;7.30;;
9117;SDS011;4594;50.994;7.126;2022-09-28T05:30:35;10.63;;;8.00;;
9117;SDS011;4594;50.994;7.126;2022-09-28T05:33:02;9.83;;;7.73;;
9117;SDS011;4594;50.994;7.126;2022-09-28T05:35:29;8.10;;;7.17;;
9117;SDS011;4594;50.994;7.126;2022-09-28T05:37:55;9.63;;;6.77;;
9117;SDS011;4594;50.994;7.126;2022-09-28T05:40:27;6.83;;;6.23;;
9117;SDS011;4594;50.994;7.126;2022-09-28T05:42:57;7.73;;;6.37;;
9117;SDS011;4594;50.994;7.126;2022-09-28T05:45:24;7.70;;;6.60;;
9117;SDS011;4594;50.994;7.126;2022-09-28T05:47:50;8.53;;;7.13;;
9117;SDS011;4594;50.994;7.126;2022-09-28T05:50:16;7.93;;;6.77;;
9117;SDS011;4594;50.994;7.126;2022-09-28T05:52:42;7.63;;;6.40;;
9117;SDS011;4594;50.994;7.126;2022-09-28T05:55:08;7.73;;;6.60;;
9117;SDS011;4594;50.994;7.126;2022-09-28T05:57:34;8.20;;;6.47;;
9117;SDS011;4594;50.994;7.126;2022-09-28T06:00:01;6.73;;;6.10;;
9117;SDS011;4594;50.994;7.126;2022-09-28T06:02:31;7.43;;;6.23;;
9117;SDS011;4594;50.994;7.126;2022-09-28T06:04:57;8.00;;;6.30;;
9117;SDS011;4594;50.994;7.126;2022-09-28T06:07:23;7.07;;;6.33;;
9117;SDS011;4594;50.994;7.126;2022-09-28T06:09:48;7.03;;;6.33;;
9117;SDS011;4594;50.994;7.126;2022-09-28T06:12:14;7.00;;;5.70;;
9117;SDS011;4594;50.994;7.126;2022-09-28T06:14:40;7.43;;;6.70;;
9117;SDS011;4594;50.994;7.126;2022-09-28T06:17:06;6.13;;;5.63;;
9117;SDS011;4594;50.994;7.126;2022-09-28T06:19:31;6.30;;;5.70;;
9117;SDS011;4594;50.994;7.126;2022-09-28T06:21:57;6.37;;;5.60;;
9117;SDS011;4594;50.994;7.126;2022-09-28T06:24:23;6.50;;;5.60;;
9117;SDS011;4594;50.994;7.126;2022-09-28T06:26:49;6.33;;;5.83;;
9117;SDS011;4594;50.994;7.126;2022-09-28T06:29:14;6.67;;;5.83;;
9117;SDS011;4594;50.994;7.126;2022-09-28T06:31:43;10.43;;;6.37;;
9117;SDS011;4594;50.994;7.126;2022-09-28T06:34:10;14.60;;;5.87;;
9117;SDS011;4594;50.994;7.126;2022-09-28T06:36:37;5.27;;;4.83;;
9117;SDS011;4594;50.994;7.126;2022-09-28T06:39:03;6.70;;;5.80;;
9117;SDS011;4594;50.994;7.126;2022-09-28T06:41:30;6.07;;;5.53;;
9117;SDS011;4594;50.994;7.126;2022-09-28T06:43:56;6.90;;;5.53;;
9117;SDS011;4594;50.994;7.126;2022-09-28T06:46:21;5.80;;;5.20;;
9117;SDS011;4594;50.994;7.126;2022-09-28T06:48:47;5.13;;;4.70;;
9117;SDS011;4594;50.994;7.126;2022-09-28T06:51:13;5.27;;;4.87;;
9117;SDS011;4594;50.994;7.126;2022-09-28T06:53:40;5.63;;;5.00;;
9117;SDS011;4594;50.994;7.126;2022-09-28T06:56:09;6.17;;;4.70;;
9117;SDS011;4594;50.994;7.126;2022-09-28T06:58:35;4.83;;;4.40;;
9117;SDS011;4594;50.994;7.126;2022-09-28T07:01:01;5.63;;;5.07;;
9117;SDS011;4594;50.994;7.126;2022-09-28T07:03:28;5.00;;;4.57;;
9117;SDS011;4594;50.994;7.126;2022-09-28T07:05:54;5.10;;;4.50;;
9117;SDS011;4594;50.994;7.126;2022-09-28T07:08:22;4.73;;;4.27;;
9117;SDS011;4594;50.994;7.126;2022-09-28T07:10:50;5.37;;;4.57;;
9117;SDS011;4594;50.994;7.126;2022-09-28T07:13:20;5.03;;;3.90;;
9117;SDS011;4594;50.994;7.126;2022-09-28T07:15:54;4.57;;;4.17;;
9117;SDS011;4594;50.994;7.126;2022-09-28T07:18:21;4.47;;;4.20;;
9117;SDS011;4594;50.994;7.126;2022-09-28T07:20:47;6.23;;;4.63;;
9117;SDS011;4594;50.994;7.126;2022-09-28T07:23:14;4.37;;;3.97;;
9117;SDS011;4594;50.994;7.126;2022-09-28T07:25:40;4.37;;;4.03;;
9117;SDS011;4594;50.994;7.126;2022-09-28T07:28:09;4.73;;;4.33;;
9117;SDS011;4594;50.994;7.126;2022-09-28T07:33:06;4.37;;;4.03;;
9117;SDS011;4594;50.994;7.126;2022-09-28T07:35:34;5.07;;;4.13;;
9117;SDS011;4594;50.994;7.126;2022-09-28T07:38:01;4.17;;;3.87;;
9117;SDS011;4594;50.994;7.126;2022-09-28T07:40:29;4.20;;;3.90;;
9117;SDS011;4594;50.994;7.126;2022-09-28T07:43:15;3.83;;;3.37;;
9117;SDS011;4594;50.994;7.126;2022-09-28T07:45:44;4.43;;;4.03;;
9117;SDS011;4594;50.994;7.126;2022-09-28T07:48:12;3.63;;;3.43;;
9117;SDS011;4594;50.994;7.126;2022-09-28T07:50:40;4.20;;;3.80;;
9117;SDS011;4594;50.994;7.126;2022-09-28T07:53:18;3.70;;;3.40;;
9117;SDS011;4594;50.994;7.126;2022-09-28T07:55:58;6.57;;;3.63;;
9117;SDS011;4594;50.994;7.126;2022-09-28T07:58:33;4.60;;;3.00;;
9117;SDS011;4594;50.994;7.126;2022-09-28T08:01:03;3.60;;;3.27;;
9117;SDS011;4594;50.994;7.126;2022-09-28T08:03:32;3.53;;;3.23;;
9117;SDS011;4594;50.994;7.126;2022-09-28T08:05:59;3.47;;;3.27;;
9117;SDS011;4594;50.994;7.126;2022-09-28T08:08:28;4.10;;;3.73;;
9117;SDS011;4594;50.994;7.126;2022-09-28T08:10:55;3.47;;;3.27;;
9117;SDS011;4594;50.994;7.126;2022-09-28T08:13:22;3.33;;;3.13;;
9117;SDS011;4594;50.994;7.126;2022-09-28T08:15:54;4.13;;;3.33;;
9117;SDS011;4594;50.994;7.126;2022-09-28T08:18:27;3.13;;;3.03;;
9117;SDS011;4594;50.994;7.126;2022-09-28T08:20:53;3.33;;;3.03;;
9117;SDS011;4594;50.994;7.126;2022-09-28T08:23:37;3.00;;;2.80;;
9117;SDS011;4594;50.994;7.126;2022-09-28T08:26:03;2.67;;;2.47;;
9117;SDS011;4594;50.994;7.126;2022-09-28T08:28:29;2.93;;;2.77;;
9117;SDS011;4594;50.994;7.126;2022-09-28T08:30:57;3.23;;;3.03;;
9117;SDS011;4594;50.994;7.126;2022-09-28T08:33:25;3.10;;;2.93;;
9117;SDS011;4594;50.994;7.126;2022-09-28T08:35:55;3.23;;;3.07;;
9117;SDS011;4594;50.994;7.126;2022-09-28T08:38:23;3.10;;;3.00;;
9117;SDS011;4594;50.994;7.126;2022-09-28T08:44:11;3.60;;;3.07;;
9117;SDS011;4594;50.994;7.126;2022-09-28T08:46:54;3.53;;;2.73;;
9117;SDS011;4594;50.994;7.126;2022-09-28T08:49:39;3.30;;;3.10;;
9117;SDS011;4594;50.994;7.126;2022-09-28T08:52:18;3.70;;;3.33;;
9117;SDS011;4594;50.994;7.126;2022-09-28T08:54:57;3.43;;;3.13;;
9117;SDS011;4594;50.994;7.126;2022-09-28T09:00:52;2.77;;;2.57;;
9117;SDS011;4594;50.994;7.126;2022-09-28T09:03:25;3.67;;;3.30;;
9117;SDS011;4594;50.994;7.126;2022-09-28T09:17:33;2.60;;;2.50;;
9117;SDS011;4594;50.994;7.126;2022-09-28T09:20:33;3.10;;;2.90;;
9117;SDS011;4594;50.994;7.126;2022-09-28T09:23:17;5.70;;;2.73;;
9117;SDS011;4594;50.994;7.126;2022-09-28T09:25:56;3.17;;;2.90;;
9117;SDS011;4594;50.994;7.126;2022-09-28T09:39:52;2.30;;;2.10;;
9117;SDS011;4594;50.994;7.126;2022-09-28T09:45:45;2.70;;;2.30;;
9117;SDS011;4594;50.994;7.126;2022-09-28T09:48:23;2.43;;;2.23;;
9117;SDS011;4594;50.994;7.126;2022-09-28T09:50:59;4.47;;;2.00;;
9117;SDS011;4594;50.994;7.126;2022-09-28T09:53:39;2.50;;;2.30;;
9117;SDS011;4594;50.994;7.126;2022-09-28T09:56:36;2.63;;;2.43;;
9117;SDS011;4594;50.994;7.126;2022-09-28T09:59:46;2.10;;;2.00;;
9117;SDS011;4594;50.994;7.126;2022-09-28T10:02:26;2.17;;;2.10;;
9117;SDS011;4594;50.994;7.126;2022-09-28T10:07:43;2.40;;;2.30;;
9117;SDS011;4594;50.994;7.126;2022-09-28T10:10:26;2.10;;;2.00;;
9117;SDS011;4594;50.994;7.126;2022-09-28T10:13:23;2.43;;;2.23;;
9117;SDS011;4594;50.994;7.126;2022-09-28T10:15:49;3.10;;;2.27;;
9117;SDS011;4594;50.994;7.126;2022-09-28T10:18:15;2.67;;;1.80;;
9117;SDS011;4594;50.994;7.126;2022-09-28T10:20:45;2.20;;;2.10;;
9117;SDS011;4594;50.994;7.126;2022-09-28T10:23:21;2.10;;;2.00;;
9117;SDS011;4594;50.994;7.126;2022-09-28T10:25:55;2.37;;;1.80;;
9117;SDS011;4594;50.994;7.126;2022-09-28T10:28:35;1.73;;;1.73;;
9117;SDS011;4594;50.994;7.126;2022-09-28T10:34:09;2.30;;;1.80;;
9117;SDS011;4594;50.994;7.126;2022-09-28T10:37:11;1.90;;;1.77;;
9117;SDS011;4594;50.994;7.126;2022-09-28T10:39:36;1.70;;;1.60;;
9117;SDS011;4594;50.994;7.126;2022-09-28T10:42:22;1.80;;;1.70;;
9117;SDS011;4594;50.994;7.126;2022-09-28T10:45:05;1.77;;;1.67;;
9117;SDS011;4594;50.994;7.126;2022-09-28T10:47:46;1.63;;;1.60;;
9117;SDS011;4594;50.994;7.126;2022-09-28T10:50:24;1.83;;;1.77;;
9117;SDS011;4594;50.994;7.126;2022-09-28T10:52:51;2.23;;;2.07;;
9117;SDS011;4594;50.994;7.126;2022-09-28T10:57:49;2.00;;;1.90;;
9117;SDS011;4594;50.994;7.126;2022-09-28T11:03:16;1.50;;;1.50;;
9117;SDS011;4594;50.994;7.126;2022-09-28T11:05:51;1.80;;;1.40;;
9117;SDS011;4594;50.994;7.126;2022-09-28T11:08:33;1.40;;;1.30;;
9117;SDS011;4594;50.994;7.126;2022-09-28T11:11:03;2.37;;;1.40;;
9117;SDS011;4594;50.994;7.126;2022-09-28T11:13:41;3.13;;;1.50;;
9117;SDS011;4594;50.994;7.126;2022-09-28T11:16:18;1.57;;;1.40;;
9117;SDS011;4594;50.994;7.126;2022-09-28T11:18:54;1.50;;;1.50;;
9117;SDS011;4594;50.994;7.126;2022-09-28T11:21:47;2.40;;;1.80;;
9117;SDS011;4594;50.994;7.126;2022-09-28T11:26:51;2.00;;;1.80;;
9117;SDS011;4594;50.994;7.126;2022-09-28T11:29:36;1.80;;;1.70;;
9117;SDS011;4594;50.994;7.126;2022-09-28T11:32:06;1.50;;;1.50;;
9117;SDS011;4594;50.994;7.126;2022-09-28T11:34:44;1.67;;;1.63;;
9117;SDS011;4594;50.994;7.126;2022-09-28T11:40:19;1.87;;;1.70;;
9117;SDS011;4594;50.994;7.126;2022-09-28T11:43:21;1.50;;;1.50;;
9117;SDS011;4594;50.994;7.126;2022-09-28T11:49:42;1.50;;;1.40;;
9117;SDS011;4594;50.994;7.126;2022-09-28T11:52:29;1.40;;;1.40;;
9117;SDS011;4594;50.994;7.126;2022-09-28T11:58:32;4.00;;;1.80;;
9117;SDS011;4594;50.994;7.126;2022-09-28T12:04:13;1.50;;;1.50;;
9117;SDS011;4594;50.994;7.126;2022-09-28T12:19:26;1.63;;;1.60;;
9117;SDS011;4594;50.994;7.126;2022-09-28T12:23:50;1.50;;;1.50;;
9117;SDS011;4594;50.994;7.126;2022-09-28T12:26:24;3.80;;;1.70;;
9117;SDS011;4594;50.994;7.126;2022-09-28T12:29:10;1.70;;;1.70;;
9117;SDS011;4594;50.994;7.126;2022-09-28T12:34:21;2.87;;;1.63;;
9117;SDS011;4594;50.994;7.126;2022-09-28T12:43:05;2.00;;;1.70;;
9117;SDS011;4594;50.994;7.126;2022-09-28T12:45:48;1.70;;;1.70;;
9117;SDS011;4594;50.994;7.126;2022-09-28T12:51:41;1.60;;;1.60;;
9117;SDS011;4594;50.994;7.126;2022-09-28T12:57:29;1.60;;;1.60;;
9117;SDS011;4594;50.994;7.126;2022-09-28T13:00:09;1.50;;;1.50;;
9117;SDS011;4594;50.994;7.126;2022-09-28T13:03:03;1.53;;;1.43;;
9117;SDS011;4594;50.994;7.126;2022-09-28T13:28:25;1.30;;;1.30;;
9117;SDS011;4594;50.994;7.126;2022-09-28T13:30:54;1.50;;;1.50;;
9117;SDS011;4594;50.994;7.126;2022-09-28T13:33:25;1.50;;;1.50;;
9117;SDS011;4594;50.994;7.126;2022-09-28T13:35:59;2.03;;;1.33;;
9117;SDS011;4594;50.994;7.126;2022-09-28T13:38:28;14.13;;;2.13;;
9117;SDS011;4594;50.994;7.126;2022-09-28T13:41:09;1.73;;;1.50;;
9117;SDS011;4594;50.994;7.126;2022-09-28T13:46:19;1.50;;;1.40;;
9117;SDS011;4594;50.994;7.126;2022-09-28T13:52:05;1.63;;;1.53;;
9117;SDS011;4594;50.994;7.126;2022-09-28T13:58:27;4.40;;;1.53;;
9117;SDS011;4594;50.994;7.126;2022-09-28T14:01:06;1.20;;;1.20;;
9117;SDS011;4594;50.994;7.126;2022-09-28T14:06:35;1.30;;;1.20;;
9117;SDS011;4594;50.994;7.126;2022-09-28T14:14:27;1.30;;;1.20;;
9117;SDS011;4594;50.994;7.126;2022-09-28T14:25:44;1.20;;;1.20;;
9117;SDS011;4594;50.994;7.126;2022-09-28T14:28:42;1.47;;;1.30;;
9117;SDS011;4594;50.994;7.126;2022-09-28T14:31:37;1.27;;;1.27;;
9117;SDS011;4594;50.994;7.126;2022-09-28T14:34:20;2.83;;;1.60;;
9117;SDS011;4594;50.994;7.126;2022-09-28T14:36:50;1.43;;;1.43;;
9117;SDS011;4594;50.994;7.126;2022-09-28T14:39:35;1.67;;;1.67;;
9117;SDS011;4594;50.994;7.126;2022-09-28T14:42:21;2.07;;;1.90;;
9117;SDS011;4594;50.994;7.126;2022-09-28T14:50:20;2.73;;;1.50;;
9117;SDS011;4594;50.994;7.126;2022-09-28T14:52:52;1.70;;;1.60;;
9117;SDS011;4594;50.994;7.126;2022-09-28T14:55:30;1.93;;;1.67;;
9117;SDS011;4594;50.994;7.126;2022-09-28T14:58:23;1.40;;;1.40;;
9117;SDS011;4594;50.994;7.126;2022-09-28T15:00:59;3.37;;;1.80;;
9117;SDS011;4594;50.994;7.126;2022-09-28T15:03:33;1.83;;;1.73;;
9117;SDS011;4594;50.994;7.126;2022-09-28T15:06:03;2.30;;;1.90;;
9117;SDS011;4594;50.994;7.126;2022-09-28T15:08:38;1.90;;;1.80;;
9117;SDS011;4594;50.994;7.126;2022-09-28T15:11:04;1.67;;;1.63;;
9117;SDS011;4594;50.994;7.126;2022-09-28T15:13:37;1.67;;;1.67;;
9117;SDS011;4594;50.994;7.126;2022-09-28T15:16:05;2.53;;;1.90;;
9117;SDS011;4594;50.994;7.126;2022-09-28T15:21:58;2.00;;;1.90;;
9117;SDS011;4594;50.994;7.126;2022-09-28T15:26:58;2.10;;;2.00;;
9117;SDS011;4594;50.994;7.126;2022-09-28T15:29:53;3.70;;;3.40;;
9117;SDS011;4594;50.994;7.126;2022-09-28T15:32:24;4.07;;;3.67;;
9117;SDS011;4594;50.994;7.126;2022-09-28T15:34:52;4.87;;;3.80;;
9117;SDS011;4594;50.994;7.126;2022-09-28T15:37:22;6.13;;;3.43;;
9117;SDS011;4594;50.994;7.126;2022-09-28T15:39:52;3.00;;;2.70;;
9117;SDS011;4594;50.994;7.126;2022-09-28T15:42:21;4.70;;;2.43;;
9117;SDS011;4594;50.994;7.126;2022-09-28T15:45:00;5.60;;;2.07;;
9117;SDS011;4594;50.994;7.126;2022-09-28T15:47:38;3.20;;;1.93;;
9117;SDS011;4594;50.994;7.126;2022-09-28T15:50:20;2.40;;;2.30;;
9117;SDS011;4594;50.994;7.126;2022-09-28T15:52:53;2.60;;;2.40;;
9117;SDS011;4594;50.994;7.126;2022-09-28T15:55:33;2.10;;;2.00;;
9117;SDS011;4594;50.994;7.126;2022-09-28T16:00:44;1.93;;;1.83;;
9117;SDS011;4594;50.994;7.126;2022-09-28T16:03:22;1.80;;;1.70;;
9117;SDS011;4594;50.994;7.126;2022-09-28T16:08:22;2.00;;;1.80;;
9117;SDS011;4594;50.994;7.126;2022-09-28T16:16:36;2.03;;;1.93;;
9117;SDS011;4594;50.994;7.126;2022-09-28T16:19:25;1.83;;;1.77;;
9117;SDS011;4594;50.994;7.126;2022-09-28T16:22:06;2.70;;;1.93;;
9117;SDS011;4594;50.994;7.126;2022-09-28T16:24:52;2.23;;;2.07;;
9117;SDS011;4594;50.994;7.126;2022-09-28T16:32:59;2.50;;;2.40;;
9117;SDS011;4594;50.994;7.126;2022-09-28T16:35:49;2.57;;;2.37;;
9117;SDS011;4594;50.994;7.126;2022-09-28T16:38:16;1.87;;;1.77;;
9117;SDS011;4594;50.994;7.126;2022-09-28T16:40:44;2.37;;;2.00;;
9117;SDS011;4594;50.994;7.126;2022-09-28T16:43:20;1.87;;;1.73;;
9117;SDS011;4594;50.994;7.126;2022-09-28T16:46:09;2.00;;;1.90;;
9117;SDS011;4594;50.994;7.126;2022-09-28T16:48:45;3.23;;;2.00;;
9117;SDS011;4594;50.994;7.126;2022-09-28T16:51:13;4.27;;;1.73;;
9117;SDS011;4594;50.994;7.126;2022-09-28T16:53:40;4.93;;;1.80;;
9117;SDS011;4594;50.994;7.126;2022-09-28T16:56:25;1.50;;;1.50;;
9117;SDS011;4594;50.994;7.126;2022-09-28T16:58:52;3.33;;;2.40;;
9117;SDS011;4594;50.994;7.126;2022-09-28T17:01:19;2.70;;;2.20;;
9117;SDS011;4594;50.994;7.126;2022-09-28T17:03:46;1.90;;;1.80;;
9117;SDS011;4594;50.994;7.126;2022-09-28T17:06:14;1.60;;;1.60;;
9117;SDS011;4594;50.994;7.126;2022-09-28T17:08:45;1.67;;;1.60;;
9117;SDS011;4594;50.994;7.126;2022-09-28T17:11:12;1.50;;;1.50;;
9117;SDS011;4594;50.994;7.126;2022-09-28T17:13:41;1.50;;;1.50;;
9117;SDS011;4594;50.994;7.126;2022-09-28T17:16:12;1.67;;;1.67;;
9117;SDS011;4594;50.994;7.126;2022-09-28T17:18:42;2.63;;;1.90;;
9117;SDS011;4594;50.994;7.126;2022-09-28T17:21:11;1.80;;;1.80;;
9117;SDS011;4594;50.994;7.126;2022-09-28T17:23:40;2.23;;;2.10;;
9117;SDS011;4594;50.994;7.126;2022-09-28T17:26:07;1.67;;;1.67;;
9117;SDS011;4594;50.994;7.126;2022-09-28T17:28:53;1.57;;;1.57;;
9117;SDS011;4594;50.994;7.126;2022-09-28T17:31:18;1.80;;;1.70;;
9117;SDS011;4594;50.994;7.126;2022-09-28T17:33:44;1.70;;;1.70;;
9117;SDS011;4594;50.994;7.126;2022-09-28T17:36:13;2.00;;;1.90;;
9117;SDS011;4594;50.994;7.126;2022-09-28T17:38:42;1.60;;;1.60;;
9117;SDS011;4594;50.994;7.126;2022-09-28T17:41:12;1.80;;;1.70;;
9117;SDS011;4594;50.994;7.126;2022-09-28T17:43:41;1.80;;;1.80;;
9117;SDS011;4594;50.994;7.126;2022-09-28T17:46:14;1.77;;;1.70;;
9117;SDS011;4594;50.994;7.126;2022-09-28T17:48:57;1.90;;;1.80;;
9117;SDS011;4594;50.994;7.126;2022-09-28T17:51:29;2.43;;;1.97;;
9117;SDS011;4594;50.994;7.126;2022-09-28T17:54:01;2.20;;;2.10;;
9117;SDS011;4594;50.994;7.126;2022-09-28T17:56:28;2.30;;;2.20;;
9117;SDS011;4594;50.994;7.126;2022-09-28T17:58:56;2.43;;;2.13;;
9117;SDS011;4594;50.994;7.126;2022-09-28T18:01:25;2.43;;;2.33;;
9117;SDS011;4594;50.994;7.126;2022-09-28T18:03:53;2.63;;;2.53;;
9117;SDS011;4594;50.994;7.126;2022-09-28T18:06:19;2.53;;;2.43;;
9117;SDS011;4594;50.994;7.126;2022-09-28T18:08:47;3.20;;;2.93;;
9117;SDS011;4594;50.994;7.126;2022-09-28T18:11:13;4.07;;;3.17;;
9117;SDS011;4594;50.994;7.126;2022-09-28T18:13:41;3.50;;;3.20;;
9117;SDS011;4594;50.994;7.126;2022-09-28T18:16:09;2.77;;;2.67;;
9117;SDS011;4594;50.994;7.126;2022-09-28T18:18:36;2.80;;;2.67;;
9117;SDS011;4594;50.994;7.126;2022-09-28T18:21:04;2.40;;;2.30;;
9117;SDS011;4594;50.994;7.126;2022-09-28T18:23:36;2.40;;;2.30;;
9117;SDS011;4594;50.994;7.126;2022-09-28T18:26:03;3.23;;;2.37;;
9117;SDS011;4594;50.994;7.126;2022-09-28T18:28:40;2.70;;;2.50;;
9117;SDS011;4594;50.994;7.126;2022-09-28T18:31:06;2.87;;;2.67;;
9117;SDS011;4594;50.994;7.126;2022-09-28T18:33:34;2.83;;;2.63;;
9117;SDS011;4594;50.994;7.126;2022-09-28T18:36:01;2.70;;;2.60;;
9117;SDS011;4594;50.994;7.126;2022-09-28T18:38:29;4.93;;;2.57;;
9117;SDS011;4594;50.994;7.126;2022-09-28T18:40:55;2.60;;;2.50;;
9117;SDS011;4594;50.994;7.126;2022-09-28T18:43:21;2.60;;;2.40;;
9117;SDS011;4594;50.994;7.126;2022-09-28T18:45:47;3.30;;;3.00;;
9117;SDS011;4594;50.994;7.126;2022-09-28T18:48:13;3.33;;;3.13;;
9117;SDS011;4594;50.994;7.126;2022-09-28T18:50:42;3.13;;;2.83;;
9117;SDS011;4594;50.994;7.126;2022-09-28T18:53:08;2.60;;;2.40;;
9117;SDS011;4594;50.994;7.126;2022-09-28T18:55:37;2.37;;;2.37;;
9117;SDS011;4594;50.994;7.126;2022-09-28T18:58:06;2.77;;;2.57;;
9117;SDS011;4594;50.994;7.126;2022-09-28T19:00:35;2.70;;;2.50;;
9117;SDS011;4594;50.994;7.126;2022-09-28T19:03:06;2.60;;;2.50;;
9117;SDS011;4594;50.994;7.126;2022-09-28T19:05:35;2.63;;;2.53;;
9117;SDS011;4594;50.994;7.126;2022-09-28T19:08:06;2.80;;;2.70;;
9117;SDS011;4594;50.994;7.126;2022-09-28T19:10:31;2.97;;;2.80;;
9117;SDS011;4594;50.994;7.126;2022-09-28T19:12:57;3.27;;;3.07;;